Time;durP1;ratioP1;P1;durP2;ratioP2;P2;SDS_P1;SDS_P2;PMS_P1;PMS_P2;Temp;Humidity;BMP_temperature;BMP_pressure;BME280_temperature;BME280_humidity;BME280_pressure;Samples;Min_cycle;Max_cycle;Signal;HPM_P1;HPM_P2
2023/03/29 00:02:20;;;;;;;2.53;1.30;;;;;;;9.72;65.27;100689.53;5045393;28;20385;-72
2023/03/29 00:04:45;;;;;;;1.47;1.23;;;;;;;9.67;65.46;100695.69;5029622;28;20419;-72
2023/03/29 00:07:13;;;;;;;4.03;1.57;;;;;;;9.68;64.91;100688.38;5018622;28;20755;-72
2023/03/29 00:09:38;;;;;;;1.97;1.43;;;;;;;9.70;65.00;100678.16;5033246;28;20557;-72
2023/03/29 00:12:04;;;;;;;1.73;1.40;;;;;;;9.67;64.35;100676.75;5024351;28;20862;-72
2023/03/29 00:14:29;;;;;;;2.60;1.40;;;;;;;9.71;64.61;100668.97;5033190;28;20426;-72
2023/03/29 00:16:55;;;;;;;1.73;1.27;;;;;;;9.74;64.59;100679.34;5016900;28;20483;-72
2023/03/29 00:19:21;;;;;;;2.03;1.48;;;;;;;9.77;64.13;100671.56;5033211;28;20395;-72
2023/03/29 00:21:46;;;;;;;2.70;1.80;;;;;;;9.76;64.26;100675.31;5021822;28;20377;-72
2023/03/29 00:24:11;;;;;;;3.10;1.50;;;;;;;9.76;64.19;100672.63;5027199;28;20419;-72
2023/03/29 00:26:36;;;;;;;3.38;1.50;;;;;;;9.76;64.26;100674.50;5016951;28;20756;-72
2023/03/29 00:29:02;;;;;;;2.90;1.67;;;;;;;9.73;64.30;100666.84;5033048;28;20421;-72
2023/03/29 00:31:27;;;;;;;1.67;1.55;;;;;;;9.75;63.70;100662.84;5022803;28;20392;-72
2023/03/29 00:33:52;;;;;;;1.20;1.20;;;;;;;9.77;63.33;100657.22;5026934;28;20391;-72
2023/03/29 00:36:18;;;;;;;3.42;1.50;;;;;;;9.78;63.46;100658.88;5016663;28;20428;-72
2023/03/29 00:38:43;;;;;;;2.20;1.60;;;;;;;9.76;63.64;100664.50;5027364;28;20401;-72
2023/03/29 00:41:09;;;;;;;2.13;1.17;;;;;;;9.78;63.62;100672.41;5020952;28;20851;-72
2023/03/29 00:43:54;;;;;;;1.52;1.17;;;;;;;9.77;64.04;100668.88;5044478;28;20404;-72
2023/03/29 00:46:20;;;;;;;1.50;1.37;;;;;;;9.80;63.88;100662.16;5046284;28;20473;-72
2023/03/29 00:48:46;;;;;;;1.30;1.20;;;;;;;9.78;63.47;100658.88;5032408;28;20398;-72
2023/03/29 00:51:13;;;;;;;1.23;1.17;;;;;;;9.76;63.42;100658.25;5020665;28;20404;-72
2023/03/29 00:53:47;;;;;;;1.30;1.10;;;;;;;9.81;63.36;100648.38;5027200;28;20858;-72
2023/03/29 00:56:26;;;;;;;1.13;1.10;;;;;;;9.83;63.23;100643.56;5015698;28;20395;-72
2023/03/29 00:59:03;;;;;;;1.85;1.20;;;;;;;9.77;63.92;100643.69;5022741;28;20373;-72
2023/03/29 01:01:53;;;;;;;1.50;1.40;;;;;;;9.79;63.85;100638.84;5026836;28;20395;-72
2023/03/29 01:04:28;;;;;;;0.80;0.80;;;;;;;9.77;64.15;100628.25;5017816;28;20414;-72
2023/03/29 01:07:16;;;;;;;1.60;0.80;;;;;;;9.78;64.16;100632.59;5032365;28;20584;-72
2023/03/29 01:09:44;;;;;;;1.73;0.80;;;;;;;9.76;64.14;100623.91;5014893;28;20390;-72
2023/03/29 01:12:18;;;;;;;1.40;0.90;;;;;;;9.73;64.35;100629.78;5026846;28;20396;-72
2023/03/29 01:14:52;;;;;;;0.95;0.90;;;;;;;9.72;64.15;100611.06;5021913;28;20449;-72
2023/03/29 01:17:20;;;;;;;1.30;1.20;;;;;;;9.70;64.21;100597.78;5020607;28;20471;-72
2023/03/29 01:19:56;;;;;;;1.45;1.00;;;;;;;9.71;64.79;100596.75;5029022;28;20891;-72
2023/03/29 01:22:37;;;;;;;1.40;1.10;;;;;;;9.69;64.83;100595.31;5020537;28;20468;-72
2023/03/29 01:25:25;;;;;;;1.52;1.05;;;;;;;9.73;64.90;100600.03;5017845;28;20835;-72
2023/03/29 01:27:56;;;;;;;1.67;0.85;;;;;;;9.71;65.07;100599.44;5021933;28;20415;-72
2023/03/29 01:30:35;;;;;;;1.20;0.90;;;;;;;9.70;64.73;100602.38;5031886;28;20478;-72
2023/03/29 01:33:11;;;;;;;1.50;0.93;;;;;;;9.66;64.83;100602.03;5017545;28;20424;-72
2023/03/29 01:35:43;;;;;;;1.20;1.05;;;;;;;9.64;65.17;100590.63;5015984;28;20415;-72
2023/03/29 01:38:14;;;;;;;1.05;0.95;;;;;;;9.65;65.19;100596.84;5031614;28;20411;-72
2023/03/29 01:40:40;;;;;;;1.20;1.10;;;;;;;9.61;65.58;100588.38;5018772;28;20635;-72
2023/03/29 01:43:22;;;;;;;1.30;1.20;;;;;;;9.59;65.49;100589.66;5026657;28;20430;-72
2023/03/29 01:46:03;;;;;;;1.10;1.08;;;;;;;9.56;65.62;100579.31;5018785;28;20401;-72
2023/03/29 01:48:50;;;;;;;1.45;1.20;;;;;;;9.55;65.82;100585.78;5020316;28;20396;-72
2023/03/29 01:51:28;;;;;;;1.15;0.93;;;;;;;9.54;66.10;100576.84;5031314;28;20394;-72
2023/03/29 01:53:59;;;;;;;1.00;1.00;;;;;;;9.54;65.95;100574.16;5022995;28;20496;-72
2023/03/29 01:56:28;;;;;;;1.00;0.90;;;;;;;9.51;65.91;100558.38;5025114;28;20391;-72
2023/03/29 01:58:59;;;;;;;0.95;0.95;;;;;;;9.51;66.31;100558.38;5015447;28;20396;-72
2023/03/29 02:01:29;;;;;;;3.72;0.90;;;;;;;9.52;66.45;100553.78;5024449;28;20839;-72
2023/03/29 02:04:00;;;;;;;1.45;1.00;;;;;;;9.51;66.03;100541.31;5021854;28;20793;-72
2023/03/29 02:06:26;;;;;;;1.30;1.20;;;;;;;9.49;66.57;100535.31;5018834;28;20479;-72
2023/03/29 02:08:54;;;;;;;1.50;1.10;;;;;;;9.45;66.67;100536.88;5030648;28;20414;-72
2023/03/29 02:11:22;;;;;;;1.23;1.00;;;;;;;9.45;67.22;100543.06;5035510;28;20486;-72
2023/03/29 02:13:47;;;;;;;1.13;1.02;;;;;;;9.46;66.65;100543.91;5024737;28;20439;-72
2023/03/29 02:16:14;;;;;;;1.00;0.90;;;;;;;9.44;67.24;100535.22;5029973;28;20387;-72
2023/03/29 02:18:42;;;;;;;1.80;1.27;;;;;;;9.45;67.01;100526.84;5030397;28;20469;-72
2023/03/29 02:21:20;;;;;;;1.52;1.20;;;;;;;9.47;67.33;100530.16;5035145;28;20905;-72
2023/03/29 02:23:47;;;;;;;2.05;1.30;;;;;;;9.44;67.41;100527.09;5024082;28;20772;-72
2023/03/29 02:26:14;;;;;;;1.10;1.10;;;;;;;9.44;67.31;100519.81;5031099;28;20390;-72
2023/03/29 02:28:40;;;;;;;2.00;0.95;;;;;;;9.42;67.73;100521.91;5031736;28;20436;-72
2023/03/29 02:31:26;;;;;;;3.03;1.13;;;;;;;9.41;67.24;100522.97;5022588;28;20378;-72
2023/03/29 02:33:57;;;;;;;2.17;1.30;;;;;;;9.39;67.09;100517.78;5021157;28;20852;-72
2023/03/29 02:36:30;;;;;;;2.40;1.40;;;;;;;9.37;67.07;100524.50;5031440;28;20383;-72
2023/03/29 02:38:59;;;;;;;3.03;1.27;;;;;;;9.37;66.68;100524.50;5022247;28;20399;-72
2023/03/29 02:41:25;;;;;;;1.35;1.25;;;;;;;9.38;66.79;100526.16;5021568;28;20423;-72
2023/03/29 02:43:51;;;;;;;3.30;2.17;;;;;;;9.38;67.00;100520.75;5033263;28;20526;-72
2023/03/29 02:46:17;;;;;;;1.85;1.75;;;;;;;9.36;67.01;100522.84;5032058;28;20479;-72
2023/03/29 02:48:47;;;;;;;2.13;1.95;;;;;;;9.32;66.87;100529.78;5021786;28;20390;-72
2023/03/29 02:51:23;;;;;;;5.70;1.30;;;;;;;9.21;67.41;100536.84;5034830;28;20402;-72
2023/03/29 02:53:56;;;;;;;2.58;2.00;;;;;;;9.17;67.66;100535.66;5046391;28;20391;-72
2023/03/29 02:56:22;;;;;;;1.80;1.53;;;;;;;9.18;67.56;100531.09;5034665;28;20397;-72
2023/03/29 02:58:47;;;;;;;2.92;1.90;;;;;;;9.20;67.55;100535.19;5024065;28;20408;-72
2023/03/29 03:01:15;;;;;;;2.80;1.57;;;;;;;9.20;67.34;100527.09;5027297;28;20384;-72
2023/03/29 03:03:40;;;;;;;2.90;1.58;;;;;;;9.22;67.26;100526.88;5046371;28;20394;-72
2023/03/29 03:06:05;;;;;;;3.73;1.43;;;;;;;9.31;66.61;100528.16;5034723;28;20813;-72
2023/03/29 03:08:31;;;;;;;2.13;1.77;;;;;;;9.18;67.31;100525.69;5026746;28;20474;-72
2023/03/29 03:10:57;;;;;;;1.50;1.33;;;;;;;9.13;67.48;100512.84;5024770;28;20397;-73
2023/03/29 03:13:22;;;;;;;1.40;1.38;;;;;;;9.09;67.25;100519.78;5019175;28;20396;-72
2023/03/29 03:15:48;;;;;;;3.70;1.42;;;;;;;9.09;67.24;100518.97;5030487;28;20393;-72
2023/03/29 03:18:15;;;;;;;1.60;1.60;;;;;;;9.09;67.01;100517.06;5020528;28;20398;-72
2023/03/29 03:20:41;;;;;;;3.42;1.70;;;;;;;9.07;67.25;100527.31;5034136;28;20386;-72
2023/03/29 03:23:08;;;;;;;3.20;1.80;;;;;;;9.04;67.38;100529.66;5019752;28;20479;-72
2023/03/29 03:25:34;;;;;;;2.10;1.50;;;;;;;9.04;67.40;100535.88;5030501;28;20395;-72
2023/03/29 03:28:00;;;;;;;1.30;1.20;;;;;;;9.03;67.31;100541.50;5020749;28;20453;-72
2023/03/29 03:30:26;;;;;;;2.65;1.42;;;;;;;8.98;66.88;100533.28;5024398;28;20872;-72
2023/03/29 03:32:53;;;;;;;1.70;1.60;;;;;;;9.00;67.02;100528.47;5028528;28;20395;-72
2023/03/29 03:35:19;;;;;;;12.30;8.40;;;;;;;9.02;66.85;100526.38;5032167;28;20870;-72
2023/03/29 03:37:44;;;;;;;5.23;3.63;;;;;;;9.02;66.81;100521.78;5019378;28;20419;-72
2023/03/29 03:40:10;;;;;;;2.97;2.10;;;;;;;8.93;66.90;100517.75;5023491;28;20393;-73
2023/03/29 03:42:38;;;;;;;1.88;1.70;;;;;;;8.91;67.07;100519.88;5026016;28;20399;-72
2023/03/29 03:45:04;;;;;;;1.60;1.50;;;;;;;8.91;67.57;100522.59;5017568;28;20904;-72
2023/03/29 03:47:29;;;;;;;4.87;2.27;;;;;;;8.91;67.21;100524.47;5029386;28;20875;-72
2023/03/29 03:49:55;;;;;;;3.83;1.90;;;;;;;8.89;67.31;100522.00;5033470;28;20395;-72
2023/03/29 03:52:20;;;;;;;4.10;1.97;;;;;;;8.85;66.96;100523.53;5033641;28;20716;-73
2023/03/29 03:54:47;;;;;;;2.90;1.70;;;;;;;8.83;67.09;100533.72;5016135;28;20428;-72
2023/03/29 03:57:12;;;;;;;2.10;1.50;;;;;;;8.84;67.42;100532.66;5033659;28;20383;-72
2023/03/29 03:59:37;;;;;;;4.43;1.60;;;;;;;8.85;67.44;100524.34;5033565;28;20395;-72
2023/03/29 04:02:03;;;;;;;2.50;2.20;;;;;;;8.87;67.86;100537.59;5022074;28;20393;-72
2023/03/29 04:04:29;;;;;;;3.60;1.90;;;;;;;8.88;67.47;100539.25;5028181;28;20422;-72
2023/03/29 04:07:01;;;;;;;3.10;1.95;;;;;;;8.87;67.46;100537.59;5047629;28;20406;-72
2023/03/29 04:09:28;;;;;;;4.80;3.00;;;;;;;8.85;67.75;100531.63;5025813;28;20476;-72
2023/03/29 04:11:53;;;;;;;2.13;1.50;;;;;;;8.78;67.81;100542.53;5024872;28;20501;-73
2023/03/29 04:14:19;;;;;;;3.77;1.83;;;;;;;8.81;68.03;100538.53;5018045;28;20896;-72
2023/03/29 04:16:44;;;;;;;2.80;1.40;;;;;;;8.87;68.03;100537.59;5029408;28;20454;-72
2023/03/29 04:19:10;;;;;;;5.40;2.20;;;;;;;8.90;68.16;100536.31;5017987;28;20397;-72
2023/03/29 04:21:35;;;;;;;1.40;1.40;;;;;;;8.84;68.50;100540.78;5029804;28;20925;-72
2023/03/29 04:24:01;;;;;;;2.10;1.75;;;;;;;8.88;68.57;100527.63;5032350;28;20818;-73
2023/03/29 04:26:26;;;;;;;1.93;1.83;;;;;;;8.89;68.46;100538.22;5031940;28;20913;-73
2023/03/29 04:28:51;;;;;;;2.58;1.60;;;;;;;8.92;68.81;100532.34;5018480;28;20387;-73
2023/03/29 04:31:17;;;;;;;1.70;1.60;;;;;;;8.94;69.10;100530.22;5023195;28;20431;-73
2023/03/29 04:33:45;;;;;;;1.77;1.55;;;;;;;8.93;69.41;100538.56;5025407;28;20429;-73
2023/03/29 04:36:12;;;;;;;2.42;1.80;;;;;;;8.94;68.57;100532.94;5028833;28;20395;-73
2023/03/29 04:38:40;;;;;;;2.15;1.80;;;;;;;8.94;68.94;100541.03;5016784;28;20415;-73
2023/03/29 04:41:07;;;;;;;1.85;1.75;;;;;;;8.92;69.41;100547.75;5030896;28;20395;-72
2023/03/29 04:43:33;;;;;;;1.90;1.42;;;;;;;8.94;69.02;100545.63;5029767;28;20433;-72
2023/03/29 04:45:58;;;;;;;2.65;1.70;;;;;;;8.95;69.00;100531.88;5043892;28;20403;-73
2023/03/29 04:48:25;;;;;;;2.58;1.30;;;;;;;8.96;69.64;100538.13;5021020;28;20796;-73
2023/03/29 04:50:52;;;;;;;2.57;1.70;;;;;;;8.96;69.35;100532.72;5018196;28;20426;-73
2023/03/29 04:53:18;;;;;;;2.00;1.70;;;;;;;8.95;69.48;100539.16;5019862;28;20837;-73
2023/03/29 04:55:45;;;;;;;1.70;1.50;;;;;;;8.98;69.36;100541.41;5019038;28;20408;-73
2023/03/29 04:58:10;;;;;;;3.33;1.60;;;;;;;9.02;69.00;100548.81;5020073;28;20742;-73
2023/03/29 05:00:36;;;;;;;2.50;1.90;;;;;;;9.02;69.18;100542.59;5028284;28;20399;-73
2023/03/29 05:03:03;;;;;;;2.28;1.60;;;;;;;9.02;69.35;100550.69;5026867;28;20593;-73
2023/03/29 05:05:28;;;;;;;2.38;1.95;;;;;;;9.01;69.08;100552.56;5026351;28;20426;-73
2023/03/29 05:07:54;;;;;;;2.70;1.60;;;;;;;9.04;68.81;100556.69;5015743;28;20387;-73
2023/03/29 05:10:19;;;;;;;2.47;2.03;;;;;;;9.05;69.01;100561.88;5031017;28;20403;-73
2023/03/29 05:12:45;;;;;;;1.73;1.63;;;;;;;9.06;68.58;100555.38;5031701;28;20400;-73
2023/03/29 05:15:10;;;;;;;3.80;2.30;;;;;;;9.08;68.89;100561.41;5031060;28;20403;-73
2023/03/29 05:17:36;;;;;;;2.35;2.15;;;;;;;9.10;69.13;100558.44;5013905;28;20405;-73
2023/03/29 05:20:08;;;;;;;2.67;1.90;;;;;;;9.11;69.14;100558.22;5014319;28;20772;-73
2023/03/29 05:22:33;;;;;;;2.47;2.00;;;;;;;9.12;69.03;100561.75;5022486;28;20450;-73
2023/03/29 05:24:59;;;;;;;2.10;1.90;;;;;;;9.10;68.93;100558.44;5041382;28;20933;-73
2023/03/29 05:27:24;;;;;;;3.63;1.70;;;;;;;9.03;68.81;100565.84;5031686;28;20391;-73
2023/03/29 05:29:50;;;;;;;4.30;2.22;;;;;;;9.07;68.44;100558.91;5026364;28;20401;-73
2023/03/29 05:32:15;;;;;;;3.80;2.00;;;;;;;9.10;68.56;100553.88;5015336;28;20408;-73
2023/03/29 05:34:40;;;;;;;2.78;1.92;;;;;;;9.12;68.31;100551.75;5016174;28;20451;-73
2023/03/29 05:37:07;;;;;;;3.57;2.30;;;;;;;9.14;68.89;100563.19;5028084;28;20399;-73
2023/03/29 05:39:33;;;;;;;2.78;2.03;;;;;;;9.16;68.82;100549.41;5021651;28;20409;-73
2023/03/29 05:41:59;;;;;;;2.50;2.03;;;;;;;9.15;68.74;100555.91;5018859;28;20464;-73
2023/03/29 05:44:25;;;;;;;5.05;1.60;;;;;;;9.17;68.41;100551.06;5031511;28;20538;-73
2023/03/29 05:46:50;;;;;;;3.17;1.83;;;;;;;9.19;68.32;100549.75;5023279;28;20919;-73
2023/03/29 05:49:16;;;;;;;4.83;2.10;;;;;;;9.20;68.66;100551.41;5022892;28;20862;-73
2023/03/29 05:51:44;;;;;;;3.73;2.00;;;;;;;9.23;68.26;100547.41;5018447;28;20407;-73
2023/03/29 05:54:10;;;;;;;3.25;2.50;;;;;;;9.24;68.23;100546.38;5025535;28;20407;-72
2023/03/29 05:56:35;;;;;;;2.83;2.20;;;;;;;9.27;68.56;100548.59;5016514;28;20409;-74
2023/03/29 05:59:01;;;;;;;4.17;2.50;;;;;;;9.33;68.54;100544.97;5028590;28;20391;-74
2023/03/29 06:01:26;;;;;;;3.80;2.13;;;;;;;9.35;68.28;100546.38;5024564;28;20734;-74
2023/03/29 06:03:51;;;;;;;5.97;2.10;;;;;;;9.38;68.33;100545.09;5020590;28;20437;-73
2023/03/29 06:06:17;;;;;;;8.83;4.40;;;;;;;9.24;68.77;100541.78;5031495;28;20386;-73
2023/03/29 06:08:43;;;;;;;6.47;4.68;;;;;;;9.31;69.03;100544.38;5013127;28;20429;-73
2023/03/29 06:11:10;;;;;;;4.93;2.80;;;;;;;9.39;68.59;100547.53;5025607;28;20403;-73
2023/03/29 06:13:37;;;;;;;4.65;2.45;;;;;;;9.45;68.86;100555.81;5022922;28;20414;-73
2023/03/29 06:16:04;;;;;;;4.43;2.20;;;;;;;9.47;68.67;100549.09;5017847;28;20871;-74
2023/03/29 06:18:30;;;;;;;2.17;1.80;;;;;;;9.48;68.78;100548.03;5027911;28;20882;-73
2023/03/29 06:20:55;;;;;;;3.42;2.20;;;;;;;9.50;68.67;100562.13;5030320;28;20395;-73
2023/03/29 06:23:22;;;;;;;5.30;2.40;;;;;;;9.65;68.13;100550.84;5026795;28;20445;-72
2023/03/29 06:25:47;;;;;;;4.57;2.58;;;;;;;9.66;68.55;100555.19;5028988;28;20402;-73
2023/03/29 06:28:13;;;;;;;3.03;2.83;;;;;;;9.31;69.06;100564.13;5024528;28;20400;-73
2023/03/29 06:30:39;;;;;;;3.38;1.85;;;;;;;9.23;69.67;100560.94;5029191;28;20403;-73
2023/03/29 06:33:05;;;;;;;2.27;2.07;;;;;;;9.27;70.23;100560.25;5016932;28;20785;-73
2023/03/29 06:35:31;;;;;;;3.00;1.70;;;;;;;9.42;69.25;100551.66;5027739;28;20418;-73
2023/03/29 06:37:56;;;;;;;3.67;2.63;;;;;;;9.51;69.51;100552.16;5026710;28;20896;-73
2023/03/29 06:40:23;;;;;;;3.37;2.00;;;;;;;9.59;69.15;100552.59;5023217;28;20399;-73
2023/03/29 06:42:49;;;;;;;3.35;2.22;;;;;;;9.61;69.13;100560.50;5016168;28;20904;-73
2023/03/29 06:45:15;;;;;;;5.45;3.45;;;;;;;9.52;69.78;100562.72;5027883;28;20427;-73
2023/03/29 06:47:41;;;;;;;2.65;2.30;;;;;;;9.64;69.64;100557.31;5016821;28;20403;-74
2023/03/29 06:50:07;;;;;;;3.20;2.20;;;;;;;9.70;68.78;100559.91;5016548;28;20409;-74
2023/03/29 06:52:32;;;;;;;4.13;2.60;;;;;;;9.53;69.76;100560.84;5024441;28;20919;-73
2023/03/29 06:55:00;;;;;;;7.67;2.50;;;;;;;9.67;69.55;100560.38;5028939;28;20503;-73
2023/03/29 06:57:26;;;;;;;3.47;2.30;;;;;;;9.77;69.32;100578.72;5034055;28;20874;-74
2023/03/29 06:59:52;;;;;;;2.57;2.37;;;;;;;9.86;68.93;100571.88;5017951;28;20407;-73
2023/03/29 07:02:17;;;;;;;4.40;2.45;;;;;;;9.92;68.55;100584.47;5028770;28;20740;-73
2023/03/29 07:04:43;;;;;;;3.93;2.30;;;;;;;9.97;68.05;100576.47;5024023;28;20469;-73
2023/03/29 07:07:18;;;;;;;3.70;2.45;;;;;;;10.00;68.17;100578.69;5026678;28;20790;-73
2023/03/29 07:09:45;;;;;;;3.72;2.42;;;;;;;10.01;67.99;100583.03;5024320;28;20430;-73
2023/03/29 07:12:10;;;;;;;4.80;2.83;;;;;;;10.06;68.20;100590.44;5018854;28;20411;-73
2023/03/29 07:14:35;;;;;;;2.87;2.60;;;;;;;10.07;67.98;100583.97;5028348;28;20454;-73
2023/03/29 07:17:01;;;;;;;6.90;2.70;;;;;;;10.10;67.90;100581.63;5037915;28;20398;-73
2023/03/29 07:19:28;;;;;;;3.40;2.77;;;;;;;10.12;67.67;100589.50;5031765;28;20437;-73
2023/03/29 07:21:54;;;;;;;4.68;2.90;;;;;;;10.12;67.35;100595.75;5028283;28;20411;-73
2023/03/29 07:24:20;;;;;;;5.13;3.07;;;;;;;10.13;67.68;100589.25;5031109;28;20941;-73
2023/03/29 07:26:47;;;;;;;5.93;3.08;;;;;;;10.18;67.40;100586.69;5031019;28;20397;-73
2023/03/29 07:29:12;;;;;;;3.38;2.85;;;;;;;10.22;67.12;100585.16;5029093;28;20478;-73
2023/03/29 07:31:39;;;;;;;2.90;2.70;;;;;;;10.27;67.44;100584.44;5027682;28;20491;-73
2023/03/29 07:34:09;;;;;;;4.43;2.75;;;;;;;10.33;66.96;100583.47;5022419;28;20959;-73
2023/03/29 07:36:35;;;;;;;5.35;3.42;;;;;;;10.38;66.70;100587.09;5029434;28;20414;-73
2023/03/29 07:39:01;;;;;;;4.47;2.97;;;;;;;10.43;66.53;100586.41;5025921;28;20425;-73
2023/03/29 07:41:26;;;;;;;7.05;3.28;;;;;;;10.43;66.82;100591.81;5024997;28;20401;-73
2023/03/29 07:43:53;;;;;;;3.90;3.10;;;;;;;10.40;66.95;100587.72;5032941;28;20886;-73
2023/03/29 07:46:18;;;;;;;5.13;2.85;;;;;;;10.42;66.53;100584.75;5028477;28;20872;-73
2023/03/29 07:48:43;;;;;;;6.83;3.10;;;;;;;10.49;66.52;100577.28;5032030;28;20403;-73
2023/03/29 07:51:08;;;;;;;3.90;2.93;;;;;;;10.56;66.55;100575.28;5021796;28;20812;-73
2023/03/29 07:53:34;;;;;;;5.13;2.77;;;;;;;10.64;66.72;100583.00;5029424;28;20885;-73
2023/03/29 07:55:59;;;;;;;4.90;2.67;;;;;;;10.65;66.67;100598.19;5024875;28;20419;-73
2023/03/29 07:58:24;;;;;;;3.90;2.87;;;;;;;10.74;66.34;100593.19;5026503;28;20472;-73
2023/03/29 08:00:49;;;;;;;6.47;3.43;;;;;;;10.80;66.29;100593.06;5026345;28;20805;-73
2023/03/29 08:03:15;;;;;;;6.87;4.10;;;;;;;10.84;66.35;100596.09;5026713;28;20401;-73
2023/03/29 08:05:41;;;;;;;4.57;4.15;;;;;;;10.89;66.08;100607.06;5022503;28;20508;-73
2023/03/29 08:08:08;;;;;;;6.45;4.07;;;;;;;10.91;65.91;100591.38;5020989;28;20414;-73
2023/03/29 08:10:35;;;;;;;6.38;4.32;;;;;;;11.00;65.48;100595.31;5027297;28;20410;-73
2023/03/29 08:13:06;;;;;;;11.30;3.87;;;;;;;11.07;65.28;100592.44;5024257;28;20401;-73
2023/03/29 08:15:32;;;;;;;6.63;4.57;;;;;;;11.16;65.33;100591.81;5021357;28;20442;-73
2023/03/29 08:17:57;;;;;;;9.85;4.97;;;;;;;11.19;64.98;100593.22;5025537;28;20411;-73
2023/03/29 08:20:23;;;;;;;12.73;5.00;;;;;;;11.33;64.84;100592.63;5019014;28;20451;-73
2023/03/29 08:22:48;;;;;;;7.53;4.05;;;;;;;11.45;64.54;100582.53;5021528;28;20415;-73
2023/03/29 08:25:13;;;;;;;8.00;4.23;;;;;;;11.56;64.27;100585.41;5020066;28;20418;-73
2023/03/29 08:27:38;;;;;;;6.27;4.47;;;;;;;11.73;64.30;100584.34;5031793;28;20411;-73
2023/03/29 08:30:06;;;;;;;5.27;3.63;;;;;;;11.72;64.41;100574.53;5043195;28;20443;-73
2023/03/29 08:32:32;;;;;;;5.43;3.33;;;;;;;11.87;63.62;100580.19;5027604;28;20523;-73
2023/03/29 08:34:57;;;;;;;6.80;4.00;;;;;;;11.98;63.42;100572.19;5028993;28;20498;-73
2023/03/29 08:37:24;;;;;;;5.77;3.67;;;;;;;12.08;63.29;100567.72;5021381;28;20703;-73
2023/03/29 08:39:49;;;;;;;6.20;3.47;;;;;;;12.17;62.92;100570.81;5024900;28;20409;-73
2023/03/29 08:42:45;;;;;;;7.70;5.03;;;;;;;12.32;62.69;100565.56;5009017;28;20524;-73
2023/03/29 08:45:24;;;;;;;3.40;2.93;;;;;;;12.45;61.75;100560.56;5019509;28;21007;-73
2023/03/29 08:48:21;;;;;;;7.63;3.97;;;;;;;12.64;61.26;100558.34;5018278;28;20407;-73
2023/03/29 08:50:51;;;;;;;10.18;5.80;;;;;;;12.89;60.87;100560.47;4999626;28;20407;-74
2023/03/29 08:53:29;;;;;;;4.10;3.42;;;;;;;13.01;60.04;100561.13;5023993;28;20401;-73
2023/03/29 08:55:57;;;;;;;5.68;3.53;;;;;;;13.05;60.03;100561.44;5024742;28;20419;-73
2023/03/29 08:58:27;;;;;;;8.13;3.70;;;;;;;13.13;60.06;100556.38;5023430;28;20411;-73
2023/03/29 09:00:56;;;;;;;4.78;4.15;;;;;;;13.26;60.16;100550.50;5022081;28;20977;-74
2023/03/29 09:03:30;;;;;;;9.47;5.40;;;;;;;13.42;59.42;100543.28;5029881;28;20468;-73
2023/03/29 09:06:03;;;;;;;5.70;3.35;;;;;;;13.47;59.35;100540.56;5016621;28;20411;-74
2023/03/29 09:08:29;;;;;;;5.13;3.60;;;;;;;13.59;59.38;100537.66;5017898;28;20396;-74
2023/03/29 09:11:21;;;;;;;6.40;3.08;;;;;;;13.67;58.31;100543.44;5027948;28;20402;-74
2023/03/29 09:13:50;;;;;;;5.43;3.80;;;;;;;13.51;57.18;100537.06;5026189;28;20736;-74
2023/03/29 09:16:33;;;;;;;4.30;2.60;;;;;;;13.29;57.09;100536.38;5021474;28;20405;-74
2023/03/29 09:19:15;;;;;;;11.93;6.97;;;;;;;13.22;56.72;100537.66;5020676;28;20764;-74
2023/03/29 09:21:48;;;;;;;5.32;3.10;;;;;;;13.19;57.15;100543.63;5026778;28;20438;-74
2023/03/29 09:24:38;;;;;;;6.40;2.85;;;;;;;13.31;56.98;100544.25;5013959;28;20431;-74
2023/03/29 09:27:08;;;;;;;4.95;2.40;;;;;;;13.57;56.76;100529.75;5015131;28;20957;-73
2023/03/29 09:29:52;;;;;;;5.43;4.20;;;;;;;13.75;55.88;100528.50;5014148;28;20428;-74
2023/03/29 09:32:25;;;;;;;6.55;2.88;;;;;;;14.06;54.36;100541.22;5023755;28;20411;-74
2023/03/29 09:35:07;;;;;;;2.90;2.50;;;;;;;14.56;53.90;100535.13;5030883;28;20399;-74
2023/03/29 09:37:37;;;;;;;7.72;2.22;;;;;;;14.95;52.93;100527.28;5024271;28;20424;-74
2023/03/29 09:40:15;;;;;;;3.45;2.28;;;;;;;14.92;52.51;100530.53;5025111;28;20445;-74
2023/03/29 09:42:42;;;;;;;3.08;2.45;;;;;;;14.81;53.19;100537.09;5022486;28;20414;-74
2023/03/29 09:45:08;;;;;;;4.95;2.75;;;;;;;14.72;52.72;100533.28;5017007;28;20521;-75
2023/03/29 09:47:39;;;;;;;4.28;2.20;;;;;;;14.89;52.76;100533.81;5015991;28;20857;-74
2023/03/29 09:50:21;;;;;;;5.35;2.20;;;;;;;15.14;52.40;100527.56;5022193;28;20407;-74
2023/03/29 09:52:48;;;;;;;4.15;2.60;;;;;;;15.36;51.83;100534.38;5021811;28;20438;-74
2023/03/29 09:55:16;;;;;;;11.65;2.33;;;;;;;15.56;50.65;100537.13;5023116;28;20410;-74
2023/03/29 09:57:42;;;;;;;3.10;1.90;;;;;;;16.01;49.47;100533.44;5021671;28;20413;-74
2023/03/29 10:00:09;;;;;;;3.95;1.98;;;;;;;16.14;48.50;100531.19;5021709;28;20762;-74
2023/03/29 10:02:35;;;;;;;1.38;1.27;;;;;;;16.38;47.39;100530.28;5021125;28;20562;-74
2023/03/29 10:05:04;;;;;;;3.05;1.67;;;;;;;16.44;46.38;100525.59;5022296;28;20419;-74
2023/03/29 10:07:43;;;;;;;5.45;1.40;;;;;;;16.36;46.73;100535.22;5022594;28;20414;-74
2023/03/29 10:10:17;;;;;;;3.05;1.88;;;;;;;16.46;46.38;100528.88;5018829;28;20387;-74
2023/03/29 10:12:52;;;;;;;2.63;2.10;;;;;;;16.37;46.48;100531.38;5025616;28;20484;-74
2023/03/29 10:15:19;;;;;;;34.70;4.13;;;;;;;16.35;45.72;100527.28;5028187;28;20914;-74
2023/03/29 10:17:45;;;;;;;38.97;3.27;;;;;;;16.18;46.27;100522.16;5022740;28;20418;-74
2023/03/29 10:20:18;;;;;;;111.10;7.30;;;;;;;16.18;45.92;100519.44;5020870;28;20406;-74
2023/03/29 10:22:53;;;;;;;417.00;48.07;;;;;;;16.07;45.69;100507.72;5023847;28;20414;-73
2023/03/29 10:25:18;;;;;;;306.05;33.90;;;;;;;16.19;45.98;100501.94;5022578;28;20514;-73
2023/03/29 10:27:46;;;;;;;285.83;27.73;;;;;;;16.50;45.81;100506.13;5022999;28;20526;-74
2023/03/29 10:30:20;;;;;;;339.88;35.63;;;;;;;16.92;45.11;100494.69;5025229;28;20544;-73
2023/03/29 10:32:45;;;;;;;347.67;33.57;;;;;;;18.98;41.62;100490.56;5024851;28;20521;-73
2023/03/29 10:35:23;;;;;;;1491.17;178.17;;;;;;;19.10;41.20;100487.34;5026685;28;20441;-74
2023/03/29 10:37:52;;;;;;;1615.60;176.75;;;;;;;20.79;38.65;100479.00;5039672;28;20415;-74
2023/03/29 10:40:32;;;;;;;1999.90;652.40;;;;;;;22.39;35.75;100481.28;5026120;28;20944;-74
2023/03/29 10:43:00;;;;;;;1999.90;999.90;;;;;;;22.14;35.01;100473.75;5024288;28;20411;-74
2023/03/29 10:45:33;;;;;;;1999.90;999.90;;;;;;;21.50;35.81;100487.13;5024966;28;20427;-74
2023/03/29 10:48:02;;;;;;;1999.90;999.90;;;;;;;20.88;36.14;100488.16;5023544;28;20407;-74
2023/03/29 10:50:34;;;;;;;1999.90;362.67;;;;;;;21.37;35.33;100479.75;5024808;28;20403;-73
2023/03/29 10:53:02;;;;;;;1999.90;341.25;;;;;;;21.62;35.63;100490.09;5021245;28;20413;-75
2023/03/29 10:55:50;;;;;;;1999.90;590.83;;;;;;;21.19;35.78;100484.34;5025466;28;20766;-74
2023/03/29 10:58:15;;;;;;;1999.90;687.42;;;;;;;20.18;36.96;100478.44;5025210;28;20897;-74
2023/03/29 11:00:47;;;;;;;1999.90;671.67;;;;;;;20.56;37.02;100475.41;5023370;28;20411;-73
2023/03/29 11:03:27;;;;;;;1999.90;609.37;;;;;;;20.30;37.07;100468.84;5024591;28;20537;-74
2023/03/29 11:06:04;;;;;;;1999.90;653.22;;;;;;;20.41;37.43;100471.06;5026108;28;20414;-74
2023/03/29 11:08:45;;;;;;;1999.90;433.83;;;;;;;20.12;37.61;100473.34;5025800;28;20482;-73
2023/03/29 11:11:31;;;;;;;1779.32;364.13;;;;;;;20.04;37.82;100471.31;5024663;28;20407;-73
2023/03/29 11:13:59;;;;;;;1478.88;288.85;;;;;;;20.16;37.83;100483.41;5033329;28;20486;-73
2023/03/29 11:17:02;;;;;;;1315.95;274.50;;;;;;;20.30;37.56;100482.59;5032606;28;20399;-73
2023/03/29 11:19:42;;;;;;;729.55;137.23;;;;;;;20.20;37.54;100472.59;5034332;28;20482;-73
2023/03/29 11:22:26;;;;;;;849.78;175.63;;;;;;;20.60;37.36;100479.16;5032087;28;20399;-73
2023/03/29 11:25:24;;;;;;;669.78;138.38;;;;;;;20.34;37.62;100464.34;5020821;28;21907;-72
2023/03/29 11:27:57;;;;;;;197.48;54.85;;;;;;;20.29;37.27;100469.97;5009714;28;20450;-73
2023/03/29 11:30:41;;;;;;;247.05;65.30;;;;;;;20.17;37.35;100464.97;5023429;28;20446;-73
2023/03/29 11:33:37;;;;;;;154.05;32.97;;;;;;;19.61;37.75;100468.06;5025298;28;21194;-74
2023/03/29 11:36:21;;;;;;;36.72;12.50;;;;;;;19.03;38.43;100474.00;5023067;28;20541;-73
2023/03/29 11:39:24;;;;;;;143.10;27.58;;;;;;;18.56;39.54;100468.72;5022821;28;20435;-73